Aérodrome :
LOGIN :

S'inscrire | Disclaimer

   EN    FR    IT 

 










Légende :    VFR   VFR Marginal   IFR   IFR Intensif   IFR Très Intensif
Visi : 
Plafond : 
>= 8 km
>= 3000ft
5 à 8 km
1000 à 3000 ft
1500m à 5 km
500 à 1000 ft
800 à 1500m
200 à 500 ft
< 800m
< 200 ft
Symboles :   Orages  Brouillard  Fortes neiges  Fortes précipitations  Vent > 20 kt
SIGMETs :   Divers  Orages  Givrage  Turbulence  Onde Orograph.  Cendres Volcan.







- Altitude de l'aérodrome : 433 ft
- Code IATA : CCF
- Voir les cartes d'approche


LFMK - Carcassonne

DERNIER METAR :
  • 280030Z AUTO 10012KT 080V150 CAVOK 18/13 Q1018

METARs EXPIRÉS :
  • 280000Z AUTO 10011KT 070V140 CAVOK 18/13 Q1018
  • 272330Z AUTO 11010KT 080V160 CAVOK 18/14 Q1018
  • 272300Z AUTO 10012KT 080V140 CAVOK 18/14 Q1018
  • 272230Z AUTO 11009KT 080V150 CAVOK 18/14 Q1019

TAF TAF LFMK
Valide du 27 à 15h jusqu'au 28 à 15h UTC


271400Z 2715/2815 10012KT 9999 NSC
TEMPO 2715/2718 10020G30KT
TEMPO 2808/2815 10020G30KT
Pas de NOTAMs connus pour ce terrain.



MET'MAP, la Météo Aéronautique d'un coup d'oeil ! - Copyright ORBIFLY Décembre 2007 - Disclaimer

ORBIFLY MET'MAP TEAM :

Programmation & Développement : Alexandra Zaïnal
Conception & Développement : Baudouin d'Aumeries
Co-Programmation & Développement : Marc-Olivier Méhu
Soutien technique & logistique : Manuel Goepfert

Contact : metmap@orbifly.com




SOURCES & CREDITS :

   NOAA